sensor_id;sensor_type;location;lat;lon;timestamp;pressure;altitude;pressure_sealevel;temperature;humidity
56604;BME280;42486;47.478;19.036;2022-11-15T00:00:29;100773.84;;;4.51;100.00
56604;BME280;42486;47.478;19.036;2022-11-15T00:03:33;100777.34;;;4.50;100.00
56604;BME280;42486;47.478;19.036;2022-11-15T00:06:39;100768.72;;;4.49;100.00
56604;BME280;42486;47.478;19.036;2022-11-15T00:09:42;100766.03;;;4.52;100.00
56604;BME280;42486;47.478;19.036;2022-11-15T00:12:47;100770.16;;;4.56;100.00
56604;BME280;42486;47.478;19.036;2022-11-15T00:15:55;100774.03;;;4.46;100.00
56604;BME280;42486;47.478;19.036;2022-11-15T00:19:03;100778.38;;;4.46;100.00
56604;BME280;42486;47.478;19.036;2022-11-15T00:22:06;100781.34;;;4.36;100.00
56604;BME280;42486;47.478;19.036;2022-11-15T00:25:09;100772.16;;;4.29;100.00
56604;BME280;42486;47.478;19.036;2022-11-15T00:28:13;100775.72;;;4.27;100.00
56604;BME280;42486;47.478;19.036;2022-11-15T00:31:15;100772.19;;;4.28;100.00
56604;BME280;42486;47.478;19.036;2022-11-15T00:34:19;100762.59;;;4.31;100.00
56604;BME280;42486;47.478;19.036;2022-11-15T00:37:22;100760.00;;;4.31;100.00
56604;BME280;42486;47.478;19.036;2022-11-15T00:40:24;100754.84;;;4.31;100.00
56604;BME280;42486;47.478;19.036;2022-11-15T00:43:28;100749.13;;;4.44;100.00
56604;BME280;42486;47.478;19.036;2022-11-15T00:46:33;100754.91;;;4.50;100.00
56604;BME280;42486;47.478;19.036;2022-11-15T00:49:37;100744.56;;;4.50;100.00
56604;BME280;42486;47.478;19.036;2022-11-15T00:52:40;100741.00;;;4.53;100.00
56604;BME280;42486;47.478;19.036;2022-11-15T00:55:43;100739.56;;;4.46;100.00
56604;BME280;42486;47.478;19.036;2022-11-15T00:58:50;100748.78;;;4.53;100.00
56604;BME280;42486;47.478;19.036;2022-11-15T01:01:56;100749.19;;;4.62;100.00
56604;BME280;42486;47.478;19.036;2022-11-15T01:05:00;100745.00;;;4.60;100.00
56604;BME280;42486;47.478;19.036;2022-11-15T01:08:11;100744.38;;;4.55;100.00
56604;BME280;42486;47.478;19.036;2022-11-15T01:11:14;100732.19;;;4.57;100.00
56604;BME280;42486;47.478;19.036;2022-11-15T01:14:19;100733.16;;;4.54;100.00
56604;BME280;42486;47.478;19.036;2022-11-15T01:17:27;100727.03;;;4.57;100.00
56604;BME280;42486;47.478;19.036;2022-11-15T01:20:30;100719.44;;;4.73;100.00
56604;BME280;42486;47.478;19.036;2022-11-15T01:23:33;100721.97;;;4.74;100.00
56604;BME280;42486;47.478;19.036;2022-11-15T01:26:37;100711.44;;;4.79;100.00
56604;BME280;42486;47.478;19.036;2022-11-15T01:29:40;100712.25;;;4.79;100.00
56604;BME280;42486;47.478;19.036;2022-11-15T01:32:42;100709.69;;;4.79;100.00
56604;BME280;42486;47.478;19.036;2022-11-15T01:35:46;100711.34;;;4.80;100.00
56604;BME280;42486;47.478;19.036;2022-11-15T01:38:56;100709.59;;;4.81;100.00
56604;BME280;42486;47.478;19.036;2022-11-15T01:42:00;100718.28;;;4.80;100.00
56604;BME280;42486;47.478;19.036;2022-11-15T01:45:04;100704.91;;;4.89;100.00
56604;BME280;42486;47.478;19.036;2022-11-15T01:48:08;100711.97;;;4.85;100.00
56604;BME280;42486;47.478;19.036;2022-11-15T01:51:14;100712.81;;;4.86;100.00
56604;BME280;42486;47.478;19.036;2022-11-15T01:54:19;100704.41;;;4.81;100.00
56604;BME280;42486;47.478;19.036;2022-11-15T01:57:23;100705.37;;;4.78;100.00
56604;BME280;42486;47.478;19.036;2022-11-15T02:00:26;100705.88;;;4.86;100.00
56604;BME280;42486;47.478;19.036;2022-11-15T02:03:33;100705.00;;;4.88;100.00
56604;BME280;42486;47.478;19.036;2022-11-15T02:06:41;100696.81;;;4.97;100.00
56604;BME280;42486;47.478;19.036;2022-11-15T02:09:51;100690.00;;;4.94;100.00
56604;BME280;42486;47.478;19.036;2022-11-15T02:12:55;100693.59;;;4.92;100.00
56604;BME280;42486;47.478;19.036;2022-11-15T02:16:02;100693.81;;;5.06;100.00
56604;BME280;42486;47.478;19.036;2022-11-15T02:28:59;100671.47;;;4.84;100.00
56604;BME280;42486;47.478;19.036;2022-11-15T02:32:21;100672.50;;;4.80;100.00
56604;BME280;42486;47.478;19.036;2022-11-15T02:35:43;100672.94;;;4.71;100.00
56604;BME280;42486;47.478;19.036;2022-11-15T02:42:04;100671.25;;;4.70;100.00
56604;BME280;42486;47.478;19.036;2022-11-15T02:45:31;100665.56;;;4.62;100.00
56604;BME280;42486;47.478;19.036;2022-11-15T02:48:35;100672.00;;;4.72;100.00
56604;BME280;42486;47.478;19.036;2022-11-15T02:51:42;100673.12;;;4.67;100.00
56604;BME280;42486;47.478;19.036;2022-11-15T02:54:53;100670.13;;;4.76;100.00
56604;BME280;42486;47.478;19.036;2022-11-15T03:07:24;100669.28;;;4.75;100.00
56604;BME280;42486;47.478;19.036;2022-11-15T03:14:01;100671.50;;;4.64;100.00
56604;BME280;42486;47.478;19.036;2022-11-15T03:20:14;100673.97;;;4.67;100.00
56604;BME280;42486;47.478;19.036;2022-11-15T03:23:18;100654.19;;;4.66;100.00
56604;BME280;42486;47.478;19.036;2022-11-15T03:26:21;100656.91;;;4.63;100.00
56604;BME280;42486;47.478;19.036;2022-11-15T03:29:31;100657.81;;;4.81;100.00
56604;BME280;42486;47.478;19.036;2022-11-15T03:32:39;100651.31;;;4.72;100.00
56604;BME280;42486;47.478;19.036;2022-11-15T03:35:44;100641.38;;;4.63;100.00
56604;BME280;42486;47.478;19.036;2022-11-15T03:38:47;100638.56;;;4.68;100.00
56604;BME280;42486;47.478;19.036;2022-11-15T03:45:16;100643.00;;;4.84;100.00
56604;BME280;42486;47.478;19.036;2022-11-15T03:48:24;100645.59;;;4.84;100.00
56604;BME280;42486;47.478;19.036;2022-11-15T03:51:28;100639.56;;;4.84;100.00
56604;BME280;42486;47.478;19.036;2022-11-15T03:54:31;100633.50;;;4.85;100.00
56604;BME280;42486;47.478;19.036;2022-11-15T03:57:35;100625.53;;;4.90;100.00
56604;BME280;42486;47.478;19.036;2022-11-15T04:00:41;100618.94;;;4.82;100.00
56604;BME280;42486;47.478;19.036;2022-11-15T04:03:45;100600.88;;;4.81;100.00
56604;BME280;42486;47.478;19.036;2022-11-15T04:06:51;100601.84;;;4.78;100.00
56604;BME280;42486;47.478;19.036;2022-11-15T04:09:54;100609.13;;;4.89;100.00
56604;BME280;42486;47.478;19.036;2022-11-15T04:13:11;100600.03;;;4.80;100.00
56604;BME280;42486;47.478;19.036;2022-11-15T04:16:14;100594.09;;;4.78;100.00
56604;BME280;42486;47.478;19.036;2022-11-15T04:19:18;100592.22;;;4.82;100.00
56604;BME280;42486;47.478;19.036;2022-11-15T04:22:39;100614.53;;;4.84;100.00
56604;BME280;42486;47.478;19.036;2022-11-15T04:26:02;100607.75;;;4.82;100.00
56604;BME280;42486;47.478;19.036;2022-11-15T04:29:10;100608.44;;;4.85;100.00
56604;BME280;42486;47.478;19.036;2022-11-15T04:32:32;100604.81;;;4.90;100.00
56604;BME280;42486;47.478;19.036;2022-11-15T04:35:34;100611.94;;;4.84;100.00
56604;BME280;42486;47.478;19.036;2022-11-15T04:38:38;100609.63;;;4.78;100.00
56604;BME280;42486;47.478;19.036;2022-11-15T04:41:50;100595.78;;;4.79;100.00
56604;BME280;42486;47.478;19.036;2022-11-15T04:44:55;100585.59;;;4.76;100.00
56604;BME280;42486;47.478;19.036;2022-11-15T04:48:00;100590.88;;;4.73;100.00
56604;BME280;42486;47.478;19.036;2022-11-15T04:51:03;100590.31;;;4.67;100.00
56604;BME280;42486;47.478;19.036;2022-11-15T04:54:09;100578.84;;;4.72;100.00
56604;BME280;42486;47.478;19.036;2022-11-15T04:57:17;100562.97;;;4.80;100.00
56604;BME280;42486;47.478;19.036;2022-11-15T05:00:30;100570.03;;;4.95;100.00
56604;BME280;42486;47.478;19.036;2022-11-15T05:03:32;100570.19;;;4.92;100.00
56604;BME280;42486;47.478;19.036;2022-11-15T05:06:53;100570.88;;;4.96;100.00
56604;BME280;42486;47.478;19.036;2022-11-15T05:09:56;100575.69;;;5.03;100.00
56604;BME280;42486;47.478;19.036;2022-11-15T05:13:01;100572.44;;;5.17;100.00
56604;BME280;42486;47.478;19.036;2022-11-15T05:16:04;100578.44;;;5.18;100.00
56604;BME280;42486;47.478;19.036;2022-11-15T05:19:06;100578.41;;;5.19;100.00
56604;BME280;42486;47.478;19.036;2022-11-15T05:22:11;100579.28;;;5.18;100.00
56604;BME280;42486;47.478;19.036;2022-11-15T05:25:15;100588.81;;;5.18;100.00
56604;BME280;42486;47.478;19.036;2022-11-15T05:28:19;100590.22;;;5.25;100.00
56604;BME280;42486;47.478;19.036;2022-11-15T05:31:22;100589.59;;;5.20;100.00
56604;BME280;42486;47.478;19.036;2022-11-15T05:34:26;100587.69;;;5.23;100.00
56604;BME280;42486;47.478;19.036;2022-11-15T05:37:32;100583.22;;;5.27;100.00
56604;BME280;42486;47.478;19.036;2022-11-15T05:40:35;100583.69;;;5.35;100.00
56604;BME280;42486;47.478;19.036;2022-11-15T05:43:41;100584.00;;;5.46;100.00
56604;BME280;42486;47.478;19.036;2022-11-15T05:46:48;100579.66;;;5.47;100.00
56604;BME280;42486;47.478;19.036;2022-11-15T05:49:56;100582.47;;;5.60;100.00
56604;BME280;42486;47.478;19.036;2022-11-15T05:53:01;100570.97;;;5.65;100.00
56604;BME280;42486;47.478;19.036;2022-11-15T05:56:06;100578.69;;;5.67;100.00
56604;BME280;42486;47.478;19.036;2022-11-15T05:59:09;100573.72;;;5.62;100.00
56604;BME280;42486;47.478;19.036;2022-11-15T06:02:13;100581.88;;;5.55;100.00
56604;BME280;42486;47.478;19.036;2022-11-15T06:05:16;100581.34;;;5.48;100.00
56604;BME280;42486;47.478;19.036;2022-11-15T06:08:20;100578.97;;;5.43;100.00
56604;BME280;42486;47.478;19.036;2022-11-15T06:11:25;100571.19;;;5.43;100.00
56604;BME280;42486;47.478;19.036;2022-11-15T06:14:29;100564.41;;;5.41;100.00
56604;BME280;42486;47.478;19.036;2022-11-15T06:17:39;100562.44;;;5.46;100.00
56604;BME280;42486;47.478;19.036;2022-11-15T06:20:42;100568.22;;;5.51;100.00
56604;BME280;42486;47.478;19.036;2022-11-15T06:23:45;100569.13;;;5.50;100.00
56604;BME280;42486;47.478;19.036;2022-11-15T06:26:48;100569.91;;;5.52;100.00
56604;BME280;42486;47.478;19.036;2022-11-15T06:29:51;100570.97;;;5.48;100.00
56604;BME280;42486;47.478;19.036;2022-11-15T06:33:02;100576.63;;;5.56;100.00
56604;BME280;42486;47.478;19.036;2022-11-15T06:36:07;100573.25;;;5.54;100.00
56604;BME280;42486;47.478;19.036;2022-11-15T06:39:17;100579.94;;;5.58;100.00
56604;BME280;42486;47.478;19.036;2022-11-15T06:42:21;100576.22;;;5.46;100.00
56604;BME280;42486;47.478;19.036;2022-11-15T06:45:25;100580.94;;;5.56;100.00
56604;BME280;42486;47.478;19.036;2022-11-15T06:48:29;100572.94;;;5.60;100.00
56604;BME280;42486;47.478;19.036;2022-11-15T06:51:35;100571.12;;;5.62;100.00
56604;BME280;42486;47.478;19.036;2022-11-15T06:54:42;100578.84;;;5.64;100.00
56604;BME280;42486;47.478;19.036;2022-11-15T06:57:49;100573.72;;;5.62;100.00
56604;BME280;42486;47.478;19.036;2022-11-15T07:00:52;100564.62;;;5.71;100.00
56604;BME280;42486;47.478;19.036;2022-11-15T07:04:07;100562.44;;;5.81;100.00
56604;BME280;42486;47.478;19.036;2022-11-15T07:07:10;100566.09;;;5.77;100.00
56604;BME280;42486;47.478;19.036;2022-11-15T07:10:14;100572.87;;;5.79;100.00
56604;BME280;42486;47.478;19.036;2022-11-15T07:13:18;100569.44;;;5.79;100.00
56604;BME280;42486;47.478;19.036;2022-11-15T07:16:22;100556.41;;;5.80;100.00
56604;BME280;42486;47.478;19.036;2022-11-15T07:19:27;100569.22;;;5.83;100.00
56604;BME280;42486;47.478;19.036;2022-11-15T07:22:31;100570.38;;;5.95;100.00
56604;BME280;42486;47.478;19.036;2022-11-15T07:25:34;100563.56;;;6.10;100.00
56604;BME280;42486;47.478;19.036;2022-11-15T07:28:38;100552.53;;;6.22;100.00
56604;BME280;42486;47.478;19.036;2022-11-15T07:31:44;100551.53;;;6.25;100.00
56604;BME280;42486;47.478;19.036;2022-11-15T07:34:46;100565.50;;;6.22;100.00
56604;BME280;42486;47.478;19.036;2022-11-15T07:37:59;100564.28;;;6.29;100.00
56604;BME280;42486;47.478;19.036;2022-11-15T07:41:06;100559.69;;;6.34;100.00
56604;BME280;42486;47.478;19.036;2022-11-15T07:44:09;100563.13;;;6.35;100.00
56604;BME280;42486;47.478;19.036;2022-11-15T07:47:16;100559.94;;;6.30;100.00
56604;BME280;42486;47.478;19.036;2022-11-15T07:50:19;100554.47;;;6.18;100.00
56604;BME280;42486;47.478;19.036;2022-11-15T07:53:22;100547.19;;;6.09;100.00
56604;BME280;42486;47.478;19.036;2022-11-15T07:56:25;100545.47;;;6.08;100.00
56604;BME280;42486;47.478;19.036;2022-11-15T07:59:28;100559.81;;;6.15;100.00
56604;BME280;42486;47.478;19.036;2022-11-15T08:02:30;100566.13;;;6.27;100.00
56604;BME280;42486;47.478;19.036;2022-11-15T08:05:34;100563.28;;;6.32;100.00
56604;BME280;42486;47.478;19.036;2022-11-15T08:08:41;100553.28;;;6.42;100.00
56604;BME280;42486;47.478;19.036;2022-11-15T08:11:44;100543.06;;;6.38;100.00
56604;BME280;42486;47.478;19.036;2022-11-15T08:14:50;100542.69;;;6.29;100.00
56604;BME280;42486;47.478;19.036;2022-11-15T08:17:57;100538.13;;;6.16;100.00
56604;BME280;42486;47.478;19.036;2022-11-15T08:21:00;100538.75;;;6.22;100.00
56604;BME280;42486;47.478;19.036;2022-11-15T08:24:05;100533.50;;;6.39;100.00
56604;BME280;42486;47.478;19.036;2022-11-15T08:27:13;100520.84;;;6.49;100.00
56604;BME280;42486;47.478;19.036;2022-11-15T08:30:18;100519.41;;;6.27;100.00
56604;BME280;42486;47.478;19.036;2022-11-15T08:33:21;100515.63;;;6.01;100.00
56604;BME280;42486;47.478;19.036;2022-11-15T08:36:24;100511.09;;;6.05;100.00
56604;BME280;42486;47.478;19.036;2022-11-15T08:39:26;100526.94;;;6.16;100.00
56604;BME280;42486;47.478;19.036;2022-11-15T08:42:33;100529.66;;;6.30;100.00
56604;BME280;42486;47.478;19.036;2022-11-15T08:45:37;100519.97;;;6.16;100.00
56604;BME280;42486;47.478;19.036;2022-11-15T08:48:39;100518.75;;;6.24;100.00
56604;BME280;42486;47.478;19.036;2022-11-15T08:51:42;100513.06;;;6.33;100.00
56604;BME280;42486;47.478;19.036;2022-11-15T08:54:50;100505.72;;;6.25;100.00
56604;BME280;42486;47.478;19.036;2022-11-15T08:57:52;100502.41;;;6.22;100.00
56604;BME280;42486;47.478;19.036;2022-11-15T09:01:02;100500.94;;;6.17;100.00
56604;BME280;42486;47.478;19.036;2022-11-15T09:04:06;100508.00;;;6.14;100.00
56604;BME280;42486;47.478;19.036;2022-11-15T09:07:15;100510.53;;;6.15;100.00
56604;BME280;42486;47.478;19.036;2022-11-15T09:10:17;100497.75;;;6.28;100.00
56604;BME280;42486;47.478;19.036;2022-11-15T09:13:20;100491.16;;;6.38;100.00
56604;BME280;42486;47.478;19.036;2022-11-15T09:16:22;100484.78;;;6.44;100.00
56604;BME280;42486;47.478;19.036;2022-11-15T09:19:25;100479.91;;;6.70;100.00
56604;BME280;42486;47.478;19.036;2022-11-15T09:22:27;100474.22;;;6.95;100.00
56604;BME280;42486;47.478;19.036;2022-11-15T09:25:35;100478.66;;;6.93;100.00
56604;BME280;42486;47.478;19.036;2022-11-15T09:28:40;100468.88;;;7.12;100.00
56604;BME280;42486;47.478;19.036;2022-11-15T09:31:44;100477.06;;;7.20;100.00
56604;BME280;42486;47.478;19.036;2022-11-15T09:34:48;100471.16;;;7.33;100.00
56604;BME280;42486;47.478;19.036;2022-11-15T09:37:53;100480.84;;;7.45;100.00
56604;BME280;42486;47.478;19.036;2022-11-15T09:41:21;100473.97;;;7.44;100.00
56604;BME280;42486;47.478;19.036;2022-11-15T09:44:31;100464.75;;;7.24;100.00
56604;BME280;42486;47.478;19.036;2022-11-15T09:47:41;100467.37;;;7.38;100.00
56604;BME280;42486;47.478;19.036;2022-11-15T09:50:49;100468.38;;;7.36;100.00
56604;BME280;42486;47.478;19.036;2022-11-15T09:57:20;100461.47;;;7.65;100.00
56604;BME280;42486;47.478;19.036;2022-11-15T10:00:38;100464.37;;;7.75;100.00
56604;BME280;42486;47.478;19.036;2022-11-15T10:03:48;100458.16;;;7.77;100.00
56604;BME280;42486;47.478;19.036;2022-11-15T10:21:20;100436.56;;;7.46;100.00
56604;BME280;42486;47.478;19.036;2022-11-15T10:32:32;100418.53;;;7.29;100.00
56604;BME280;42486;47.478;19.036;2022-11-15T10:49:00;100396.91;;;7.57;100.00
56604;BME280;42486;47.478;19.036;2022-11-15T11:00:05;100387.62;;;7.67;100.00
56604;BME280;42486;47.478;19.036;2022-11-15T11:09:59;100368.09;;;8.03;100.00
56604;BME280;42486;47.478;19.036;2022-11-15T11:13:12;100361.31;;;8.01;100.00
56604;BME280;42486;47.478;19.036;2022-11-15T11:16:23;100360.94;;;8.07;100.00
56604;BME280;42486;47.478;19.036;2022-11-15T11:29:46;100346.25;;;7.50;100.00
56604;BME280;42486;47.478;19.036;2022-11-15T11:42:54;100331.75;;;7.46;100.00
56604;BME280;42486;47.478;19.036;2022-11-15T11:52:59;100323.47;;;7.39;100.00
56604;BME280;42486;47.478;19.036;2022-11-15T11:56:15;100317.09;;;7.31;100.00
56604;BME280;42486;47.478;19.036;2022-11-15T11:59:36;100319.31;;;7.22;100.00
56604;BME280;42486;47.478;19.036;2022-11-15T12:03:02;100324.50;;;7.22;100.00
56604;BME280;42486;47.478;19.036;2022-11-15T12:09:43;100302.81;;;7.23;100.00
56604;BME280;42486;47.478;19.036;2022-11-15T12:13:08;100298.06;;;7.30;100.00
56604;BME280;42486;47.478;19.036;2022-11-15T12:16:36;100291.03;;;7.32;100.00
56604;BME280;42486;47.478;19.036;2022-11-15T12:19:51;100286.19;;;7.40;100.00
56604;BME280;42486;47.478;19.036;2022-11-15T12:23:01;100284.69;;;7.50;100.00
56604;BME280;42486;47.478;19.036;2022-11-15T12:26:25;100279.69;;;7.47;100.00
56604;BME280;42486;47.478;19.036;2022-11-15T12:29:33;100272.53;;;7.51;100.00
56604;BME280;42486;47.478;19.036;2022-11-15T12:32:52;100277.34;;;7.57;100.00
56604;BME280;42486;47.478;19.036;2022-11-15T12:36:00;100276.59;;;7.55;100.00
56604;BME280;42486;47.478;19.036;2022-11-15T12:39:19;100271.59;;;7.52;100.00
56604;BME280;42486;47.478;19.036;2022-11-15T12:49:42;100255.09;;;7.24;100.00
56604;BME280;42486;47.478;19.036;2022-11-15T12:56:38;100237.13;;;6.93;100.00
56604;BME280;42486;47.478;19.036;2022-11-15T13:06:51;100238.28;;;6.58;100.00
56604;BME280;42486;47.478;19.036;2022-11-15T13:09:55;100239.97;;;6.74;100.00
56604;BME280;42486;47.478;19.036;2022-11-15T13:13:07;100238.69;;;6.81;100.00
56604;BME280;42486;47.478;19.036;2022-11-15T13:16:17;100242.84;;;6.69;100.00
56604;BME280;42486;47.478;19.036;2022-11-15T13:19:22;100249.28;;;6.92;100.00
56604;BME280;42486;47.478;19.036;2022-11-15T13:22:37;100238.03;;;7.06;100.00
56604;BME280;42486;47.478;19.036;2022-11-15T13:26:07;100240.06;;;7.15;100.00
56604;BME280;42486;47.478;19.036;2022-11-15T13:35:45;100221.91;;;7.01;100.00
56604;BME280;42486;47.478;19.036;2022-11-15T13:39:14;100223.09;;;7.10;100.00
56604;BME280;42486;47.478;19.036;2022-11-15T13:42:42;100213.56;;;6.96;100.00
56604;BME280;42486;47.478;19.036;2022-11-15T13:49:12;100202.41;;;7.08;100.00
56604;BME280;42486;47.478;19.036;2022-11-15T13:52:14;100188.72;;;6.92;100.00
56604;BME280;42486;47.478;19.036;2022-11-15T13:55:23;100193.88;;;6.77;100.00
56604;BME280;42486;47.478;19.036;2022-11-15T13:59:29;100198.25;;;6.77;100.00
56604;BME280;42486;47.478;19.036;2022-11-15T14:02:39;100191.66;;;6.71;100.00
56604;BME280;42486;47.478;19.036;2022-11-15T14:09:29;100181.47;;;6.68;100.00
56604;BME280;42486;47.478;19.036;2022-11-15T14:12:36;100182.00;;;6.59;100.00
56604;BME280;42486;47.478;19.036;2022-11-15T14:15:41;100184.16;;;6.52;100.00
56604;BME280;42486;47.478;19.036;2022-11-15T14:18:49;100178.31;;;6.63;100.00
56604;BME280;42486;47.478;19.036;2022-11-15T14:25:20;100179.25;;;6.76;100.00
56604;BME280;42486;47.478;19.036;2022-11-15T14:31:27;100168.56;;;6.67;100.00
56604;BME280;42486;47.478;19.036;2022-11-15T14:34:31;100161.97;;;6.75;100.00
56604;BME280;42486;47.478;19.036;2022-11-15T14:37:34;100155.31;;;6.71;100.00
56604;BME280;42486;47.478;19.036;2022-11-15T14:40:37;100151.44;;;6.64;100.00
56604;BME280;42486;47.478;19.036;2022-11-15T14:43:40;100148.06;;;6.62;100.00
56604;BME280;42486;47.478;19.036;2022-11-15T14:46:43;100143.75;;;6.62;100.00
56604;BME280;42486;47.478;19.036;2022-11-15T14:49:45;100139.56;;;6.60;100.00
56604;BME280;42486;47.478;19.036;2022-11-15T14:52:48;100144.12;;;6.71;100.00
56604;BME280;42486;47.478;19.036;2022-11-15T14:55:50;100138.38;;;6.66;100.00
56604;BME280;42486;47.478;19.036;2022-11-15T14:58:53;100143.75;;;6.62;100.00
56604;BME280;42486;47.478;19.036;2022-11-15T15:01:57;100134.75;;;6.68;100.00
56604;BME280;42486;47.478;19.036;2022-11-15T15:05:12;100126.13;;;6.68;100.00
56604;BME280;42486;47.478;19.036;2022-11-15T15:08:23;100129.19;;;6.60;100.00
56604;BME280;42486;47.478;19.036;2022-11-15T15:11:27;100132.88;;;6.56;100.00
56604;BME280;42486;47.478;19.036;2022-11-15T15:14:33;100134.84;;;6.67;100.00
56604;BME280;42486;47.478;19.036;2022-11-15T15:17:35;100125.13;;;6.70;100.00
56604;BME280;42486;47.478;19.036;2022-11-15T15:20:38;100125.19;;;6.69;100.00
56604;BME280;42486;47.478;19.036;2022-11-15T15:23:41;100118.87;;;6.73;100.00
56604;BME280;42486;47.478;19.036;2022-11-15T15:26:50;100110.00;;;6.62;100.00
56604;BME280;42486;47.478;19.036;2022-11-15T15:29:55;100109.62;;;6.69;100.00
56604;BME280;42486;47.478;19.036;2022-11-15T15:32:58;100119.38;;;6.65;100.00
56604;BME280;42486;47.478;19.036;2022-11-15T15:36:13;100123.69;;;6.65;100.00
56604;BME280;42486;47.478;19.036;2022-11-15T15:39:16;100122.22;;;6.75;100.00
56604;BME280;42486;47.478;19.036;2022-11-15T15:42:18;100127.88;;;6.81;100.00
56604;BME280;42486;47.478;19.036;2022-11-15T15:45:22;100130.75;;;6.77;100.00
56604;BME280;42486;47.478;19.036;2022-11-15T15:48:24;100125.37;;;6.80;100.00
56604;BME280;42486;47.478;19.036;2022-11-15T15:51:28;100125.56;;;6.77;100.00
56604;BME280;42486;47.478;19.036;2022-11-15T15:54:31;100122.69;;;6.67;100.00
56604;BME280;42486;47.478;19.036;2022-11-15T15:57:37;100118.13;;;6.56;100.00
56604;BME280;42486;47.478;19.036;2022-11-15T16:00:39;100108.13;;;6.65;100.00
56604;BME280;42486;47.478;19.036;2022-11-15T16:03:42;100107.78;;;6.71;100.00
56604;BME280;42486;47.478;19.036;2022-11-15T16:06:44;100113.88;;;6.70;100.00
56604;BME280;42486;47.478;19.036;2022-11-15T16:09:47;100107.56;;;6.59;100.00
56604;BME280;42486;47.478;19.036;2022-11-15T16:13:10;100109.72;;;6.53;100.00
56604;BME280;42486;47.478;19.036;2022-11-15T16:16:18;100107.88;;;6.55;100.00
56604;BME280;42486;47.478;19.036;2022-11-15T16:19:24;100114.63;;;6.57;100.00
56604;BME280;42486;47.478;19.036;2022-11-15T16:22:28;100115.09;;;6.64;100.00
56604;BME280;42486;47.478;19.036;2022-11-15T16:25:37;100115.37;;;6.74;100.00
56604;BME280;42486;47.478;19.036;2022-11-15T16:28:42;100106.62;;;6.75;100.00
56604;BME280;42486;47.478;19.036;2022-11-15T16:31:45;100102.19;;;6.77;100.00
56604;BME280;42486;47.478;19.036;2022-11-15T16:34:47;100101.75;;;6.70;100.00
56604;BME280;42486;47.478;19.036;2022-11-15T16:37:50;100098.28;;;6.70;100.00
56604;BME280;42486;47.478;19.036;2022-11-15T16:40:53;100101.47;;;6.60;100.00
56604;BME280;42486;47.478;19.036;2022-11-15T16:43:57;100096.62;;;6.69;100.00
56604;BME280;42486;47.478;19.036;2022-11-15T16:50:57;100084.69;;;6.66;100.00
56604;BME280;42486;47.478;19.036;2022-11-15T16:54:01;100086.25;;;6.69;100.00
56604;BME280;42486;47.478;19.036;2022-11-15T16:57:06;100082.25;;;6.77;100.00
56604;BME280;42486;47.478;19.036;2022-11-15T17:00:37;100085.66;;;6.78;100.00
56604;BME280;42486;47.478;19.036;2022-11-15T17:08:20;100076.62;;;6.71;100.00
56604;BME280;42486;47.478;19.036;2022-11-15T17:11:55;100070.41;;;6.73;100.00
56604;BME280;42486;47.478;19.036;2022-11-15T17:15:02;100074.66;;;6.74;100.00
56604;BME280;42486;47.478;19.036;2022-11-15T17:18:15;100069.84;;;6.68;100.00
56604;BME280;42486;47.478;19.036;2022-11-15T17:21:47;100080.22;;;6.54;100.00
56604;BME280;42486;47.478;19.036;2022-11-15T17:25:04;100071.06;;;6.34;100.00
56604;BME280;42486;47.478;19.036;2022-11-15T17:28:13;100065.88;;;6.34;100.00
56604;BME280;42486;47.478;19.036;2022-11-15T17:31:25;100058.56;;;6.40;100.00
56604;BME280;42486;47.478;19.036;2022-11-15T17:34:35;100063.09;;;6.51;100.00
56604;BME280;42486;47.478;19.036;2022-11-15T17:38:01;100055.13;;;6.54;100.00
56604;BME280;42486;47.478;19.036;2022-11-15T17:41:20;100054.13;;;6.57;100.00
56604;BME280;42486;47.478;19.036;2022-11-15T17:44:38;100043.00;;;6.55;100.00
56604;BME280;42486;47.478;19.036;2022-11-15T17:48:07;100033.44;;;6.55;100.00
56604;BME280;42486;47.478;19.036;2022-11-15T17:51:59;100032.97;;;6.49;100.00
